createdAt,value
2018-07-07T00:01:11.556Z,18.50
2018-07-07T00:03:40.128Z,18.50
2018-07-07T00:06:08.704Z,18.40
2018-07-07T00:08:37.327Z,18.30
2018-07-07T00:11:06.110Z,18.30
2018-07-07T00:13:34.692Z,18.20
2018-07-07T00:16:03.226Z,18.20
2018-07-07T00:18:31.824Z,18.10
2018-07-07T00:21:00.388Z,18.00
2018-07-07T00:23:28.952Z,18.00
2018-07-07T00:25:57.513Z,17.90
2018-07-07T00:28:26.058Z,17.90
2018-07-07T00:30:54.584Z,17.80
2018-07-07T00:33:23.147Z,17.80
2018-07-07T00:35:51.971Z,17.80
2018-07-07T00:38:20.595Z,17.70
2018-07-07T00:40:49.191Z,17.70
2018-07-07T00:43:17.740Z,17.70
2018-07-07T00:45:46.372Z,17.60
2018-07-07T00:48:14.979Z,17.60
2018-07-07T00:50:43.549Z,17.60
2018-07-07T00:53:12.109Z,17.50
2018-07-07T00:55:40.663Z,17.50
2018-07-07T00:58:09.235Z,17.40
2018-07-07T01:00:45.349Z,17.40
2018-07-07T01:03:13.957Z,17.30
2018-07-07T01:05:45.000Z,17.30
2018-07-07T01:08:13.983Z,17.20
2018-07-07T01:10:42.645Z,17.20
2018-07-07T01:13:11.161Z,17.20
2018-07-07T01:15:39.896Z,17.10
2018-07-07T01:18:08.803Z,17.10
2018-07-07T01:20:37.339Z,17.10
2018-07-07T01:23:05.868Z,17.10
2018-07-07T01:25:34.447Z,17.10
2018-07-07T01:28:03.000Z,17.10
2018-07-07T01:30:31.570Z,17.00
2018-07-07T01:33:00.148Z,16.90
2018-07-07T01:35:28.724Z,16.90
2018-07-07T01:37:57.345Z,16.90
2018-07-07T01:40:25.911Z,16.80
2018-07-07T01:42:54.455Z,16.80
2018-07-07T01:45:22.981Z,16.70
2018-07-07T01:47:51.558Z,16.60
2018-07-07T01:50:20.108Z,16.50
2018-07-07T01:52:48.745Z,16.50
2018-07-07T01:55:17.304Z,16.40
2018-07-07T01:57:45.931Z,16.40
2018-07-07T02:00:14.500Z,16.30
2018-07-07T02:02:43.117Z,16.30
2018-07-07T02:05:11.691Z,16.30
2018-07-07T02:07:40.275Z,16.20
2018-07-07T02:10:08.825Z,16.30
2018-07-07T02:12:37.450Z,16.30
2018-07-07T02:15:06.084Z,16.30
2018-07-07T02:17:34.642Z,16.20
2018-07-07T02:20:03.349Z,16.20
2018-07-07T02:22:31.946Z,16.20
2018-07-07T02:25:00.524Z,16.10
2018-07-07T02:27:29.108Z,16.20
2018-07-07T02:32:25.900Z,16.20
2018-07-07T02:34:54.468Z,16.20
2018-07-07T02:37:23.036Z,16.20
2018-07-07T02:39:51.641Z,16.30
2018-07-07T02:42:20.160Z,16.30
2018-07-07T02:44:48.722Z,16.30
2018-07-07T02:47:17.301Z,16.40
2018-07-07T02:49:45.868Z,16.40
2018-07-07T02:52:14.457Z,16.40
2018-07-07T02:54:43.032Z,16.50
2018-07-07T02:57:11.590Z,16.50
2018-07-07T02:59:40.123Z,16.50
2018-07-07T03:02:08.783Z,16.50
2018-07-07T03:04:37.346Z,16.50
2018-07-07T03:07:06.006Z,16.50
2018-07-07T03:09:34.549Z,16.50
2018-07-07T03:12:03.160Z,16.50
2018-07-07T03:14:31.824Z,16.40
2018-07-07T03:17:00.433Z,16.50
2018-07-07T03:19:28.992Z,16.50
2018-07-07T03:21:57.540Z,16.60
2018-07-07T03:24:26.108Z,16.60
2018-07-07T03:26:54.658Z,16.70
2018-07-07T03:29:23.219Z,16.70
2018-07-07T03:31:51.787Z,16.70
2018-07-07T03:34:20.307Z,16.70
2018-07-07T03:36:48.847Z,16.70
2018-07-07T03:39:17.360Z,16.70
2018-07-07T03:41:45.932Z,16.70
2018-07-07T03:44:14.439Z,16.70
2018-07-07T03:46:42.998Z,16.80
2018-07-07T03:49:11.553Z,16.90
2018-07-07T03:51:40.159Z,16.90
2018-07-07T03:54:08.685Z,16.90
2018-07-07T03:56:37.237Z,16.90
2018-07-07T03:59:05.775Z,16.90
2018-07-07T04:01:34.338Z,17.00
2018-07-07T04:04:02.843Z,17.10
2018-07-07T04:06:31.442Z,17.10
2018-07-07T04:09:00.012Z,17.10
2018-07-07T04:11:28.666Z,17.10
2018-07-07T04:13:57.155Z,17.20
2018-07-07T04:16:25.713Z,17.20
2018-07-07T04:18:54.250Z,17.20
2018-07-07T04:21:22.824Z,17.30
2018-07-07T04:23:51.358Z,17.40
2018-07-07T04:26:19.938Z,17.40
2018-07-07T04:28:48.488Z,17.40
2018-07-07T04:31:17.024Z,17.40
2018-07-07T04:33:45.553Z,17.50
2018-07-07T04:36:14.183Z,17.50
2018-07-07T04:38:42.704Z,17.60
2018-07-07T04:41:11.231Z,17.60
2018-07-07T04:43:39.799Z,17.70
2018-07-07T04:46:08.372Z,17.70
2018-07-07T04:48:36.920Z,17.80
2018-07-07T04:51:05.490Z,17.70
2018-07-07T04:53:34.070Z,17.70
2018-07-07T04:56:02.599Z,17.80
2018-07-07T04:58:31.159Z,17.80
2018-07-07T05:00:59.920Z,17.70
2018-07-07T05:03:28.465Z,17.80
2018-07-07T05:05:57.003Z,17.90
2018-07-07T05:08:25.520Z,17.90
2018-07-07T05:10:54.102Z,18.00
2018-07-07T05:13:22.630Z,17.90
2018-07-07T05:15:51.198Z,18.00
2018-07-07T05:18:19.739Z,18.00
2018-07-07T05:20:48.299Z,18.00
2018-07-07T05:23:16.849Z,18.10
2018-07-07T05:25:45.411Z,18.10
2018-07-07T05:28:13.987Z,18.10
2018-07-07T05:30:42.514Z,18.20
2018-07-07T05:33:11.077Z,18.20
2018-07-07T05:35:39.656Z,18.40
2018-07-07T05:38:08.166Z,18.40
2018-07-07T05:40:36.833Z,18.50
2018-07-07T05:43:05.638Z,18.70
2018-07-07T05:45:34.163Z,18.70
2018-07-07T05:48:02.716Z,18.70
2018-07-07T05:50:31.334Z,18.80
2018-07-07T05:52:59.886Z,18.70
2018-07-07T05:55:28.418Z,18.90
2018-07-07T05:57:57.019Z,19.00
2018-07-07T06:00:25.553Z,19.10
2018-07-07T06:02:54.093Z,19.10
2018-07-07T06:05:22.672Z,19.00
2018-07-07T06:07:51.237Z,19.20
2018-07-07T06:10:19.794Z,19.10
2018-07-07T06:12:48.330Z,19.10
2018-07-07T06:15:16.948Z,19.10
2018-07-07T06:17:45.485Z,19.10
2018-07-07T06:20:14.055Z,19.20
2018-07-07T06:22:42.717Z,19.30
2018-07-07T06:25:11.380Z,19.40
2018-07-07T06:27:39.922Z,19.50
2018-07-07T06:30:08.533Z,19.60
2018-07-07T06:32:37.116Z,19.60
2018-07-07T06:35:05.674Z,19.60
2018-07-07T06:37:34.279Z,19.60
2018-07-07T06:40:02.893Z,19.60
2018-07-07T06:42:31.437Z,19.70
2018-07-07T06:44:59.996Z,19.80
2018-07-07T06:47:28.525Z,19.60
2018-07-07T06:49:57.084Z,19.70
2018-07-07T06:52:25.592Z,19.80
2018-07-07T06:54:54.134Z,20.00
2018-07-07T06:57:22.648Z,20.00
2018-07-07T06:59:51.237Z,20.10
2018-07-07T07:02:19.773Z,20.20
2018-07-07T07:04:48.378Z,20.30
2018-07-07T07:07:16.888Z,20.40
2018-07-07T07:09:45.660Z,20.40
2018-07-07T07:12:14.217Z,20.40
2018-07-07T07:14:42.827Z,20.40
2018-07-07T07:17:11.404Z,20.50
2018-07-07T07:19:39.946Z,20.60
2018-07-07T07:22:08.470Z,20.70
2018-07-07T07:24:37.026Z,20.80
2018-07-07T07:27:05.636Z,20.80
2018-07-07T07:29:34.185Z,21.00
2018-07-07T07:32:02.755Z,21.00
2018-07-07T07:34:31.323Z,21.00
2018-07-07T07:36:59.899Z,20.90
2018-07-07T07:39:28.448Z,20.90
2018-07-07T07:41:56.994Z,21.00
2018-07-07T07:44:25.627Z,21.00
2018-07-07T07:46:54.159Z,21.20
2018-07-07T07:49:22.705Z,21.30
2018-07-07T08:08:39.247Z,21.30
2018-07-07T08:11:07.884Z,21.20
2018-07-07T08:13:36.616Z,21.40
2018-07-07T08:16:05.289Z,21.30
2018-07-07T08:18:34.087Z,21.30
2018-07-07T08:21:02.706Z,21.40
2018-07-07T08:23:31.284Z,21.50
2018-07-07T08:25:59.919Z,21.60
2018-07-07T08:28:28.570Z,21.60
2018-07-07T08:30:57.181Z,21.80
2018-07-07T08:33:25.732Z,22.00
2018-07-07T08:35:54.988Z,22.10
2018-07-07T08:38:23.537Z,22.20
2018-07-07T08:40:52.140Z,22.00
2018-07-07T08:43:21.283Z,22.10
2018-07-07T08:45:49.952Z,22.10
2018-07-07T08:48:18.555Z,22.10
2018-07-07T08:50:47.198Z,22.20
2018-07-07T08:53:15.817Z,22.30
2018-07-07T08:55:44.456Z,22.40
2018-07-07T09:15:00.057Z,22.50
2018-07-07T09:17:28.835Z,22.40
2018-07-07T09:19:57.342Z,22.30
2018-07-07T09:22:26.031Z,22.30
2018-07-07T09:24:54.735Z,22.30
2018-07-07T09:27:23.381Z,22.40
2018-07-07T09:46:34.111Z,22.70
2018-07-07T09:49:02.753Z,23.00
2018-07-07T09:51:31.417Z,23.00
2018-07-07T09:53:59.962Z,22.90
2018-07-07T09:56:28.525Z,23.10
2018-07-07T09:58:57.088Z,23.00
2018-07-07T10:01:25.678Z,23.00
2018-07-07T10:03:54.250Z,23.10
2018-07-07T10:06:22.804Z,23.00
2018-07-07T10:08:51.363Z,23.10
2018-07-07T10:11:19.969Z,23.30
2018-07-07T10:13:48.545Z,23.30
2018-07-07T10:16:17.113Z,23.40
2018-07-07T10:18:45.682Z,23.20
2018-07-07T10:21:14.257Z,23.10
2018-07-07T10:23:42.861Z,23.00
2018-07-07T10:26:11.433Z,23.00
2018-07-07T10:28:40.000Z,23.40
2018-07-07T10:31:08.636Z,23.80
2018-07-07T10:33:37.278Z,23.90
2018-07-07T10:36:06.158Z,23.80
2018-07-07T10:38:34.730Z,23.80
2018-07-07T10:41:03.270Z,23.70
2018-07-07T10:43:31.829Z,23.60
2018-07-07T10:46:00.489Z,23.50
2018-07-07T10:48:28.980Z,23.60
2018-07-07T10:50:57.686Z,23.70
2018-07-07T10:53:26.398Z,23.90
2018-07-07T10:55:55.147Z,24.30
2018-07-07T10:58:23.752Z,24.50
2018-07-07T11:00:52.449Z,24.60
2018-07-07T11:05:49.348Z,25.00
2018-07-07T11:08:17.995Z,25.10
2018-07-07T11:10:46.671Z,25.30
2018-07-07T11:13:15.305Z,25.30
2018-07-07T11:15:44.028Z,25.60
2018-07-07T11:18:12.793Z,25.50
2018-07-07T11:20:41.462Z,25.70
2018-07-07T11:25:38.310Z,26.00
2018-07-07T11:28:06.901Z,26.30
2018-07-07T11:30:35.534Z,26.50
2018-07-07T11:33:04.126Z,26.40
2018-07-07T11:35:32.849Z,26.60
2018-07-07T11:38:01.434Z,26.70
2018-07-07T11:40:30.051Z,26.90
2018-07-07T11:42:58.591Z,26.30
2018-07-07T11:45:27.169Z,26.00
2018-07-07T11:47:55.765Z,25.50
2018-07-07T11:50:24.404Z,26.20
2018-07-07T11:52:53.011Z,26.20
2018-07-07T11:55:21.594Z,26.00
2018-07-07T11:57:50.168Z,25.70
2018-07-07T12:00:18.775Z,25.40
2018-07-07T12:02:47.405Z,25.50
2018-07-07T12:05:16.080Z,25.90
2018-07-07T12:07:44.637Z,26.40
2018-07-07T12:10:13.325Z,26.60
2018-07-07T12:12:41.950Z,26.90
2018-07-07T12:15:10.625Z,27.20
2018-07-07T12:17:39.301Z,27.20
2018-07-07T12:20:07.908Z,27.70
2018-07-07T12:22:36.500Z,27.70
2018-07-07T12:25:05.083Z,27.40
2018-07-07T12:27:33.593Z,27.50
2018-07-07T12:30:02.184Z,27.80
2018-07-07T12:32:30.694Z,28.10
2018-07-07T12:34:59.250Z,27.90
2018-07-07T12:37:27.774Z,26.80
2018-07-07T12:39:56.415Z,27.10
2018-07-07T12:42:24.980Z,27.20
2018-07-07T12:44:53.622Z,27.50
2018-07-07T12:47:23.074Z,27.10
2018-07-07T12:49:51.726Z,27.00
2018-07-07T12:52:20.236Z,26.70
2018-07-07T12:54:48.897Z,26.40
2018-07-07T12:57:17.467Z,26.70
2018-07-07T12:59:46.015Z,27.10
2018-07-07T13:02:14.535Z,27.60
2018-07-07T13:04:43.092Z,27.80
2018-07-07T13:07:11.624Z,28.00
2018-07-07T13:09:40.180Z,28.00
2018-07-07T13:12:08.731Z,28.50
2018-07-07T13:14:37.440Z,28.40
2018-07-07T13:17:06.179Z,28.40
2018-07-07T13:19:34.781Z,28.10
2018-07-07T13:22:03.345Z,28.10
2018-07-07T13:24:31.951Z,27.60
2018-07-07T13:27:00.492Z,27.30
2018-07-07T13:29:29.069Z,27.50
2018-07-07T13:31:57.699Z,27.30
2018-07-07T13:34:26.346Z,27.10
2018-07-07T13:36:54.883Z,27.20
2018-07-07T13:39:23.474Z,27.50
2018-07-07T13:41:52.006Z,27.90
2018-07-07T13:44:20.707Z,27.50
2018-07-07T13:46:49.417Z,28.10
2018-07-07T13:49:18.105Z,27.90
2018-07-07T13:51:46.667Z,27.50
2018-07-07T13:54:15.560Z,27.40
2018-07-07T13:56:44.154Z,27.20
2018-07-07T13:59:12.917Z,27.20
2018-07-07T14:01:41.511Z,27.20
2018-07-07T14:04:10.177Z,27.00
2018-07-07T14:06:38.711Z,26.90
2018-07-07T14:09:07.835Z,26.80
2018-07-07T14:11:36.595Z,26.60
2018-07-07T14:14:05.537Z,26.60
2018-07-07T14:16:34.162Z,26.60
2018-07-07T14:19:02.770Z,26.80
2018-07-07T14:21:31.309Z,27.00
2018-07-07T14:23:59.880Z,27.00
2018-07-07T14:26:28.485Z,27.10
2018-07-07T14:28:57.336Z,27.10
2018-07-07T14:31:25.862Z,27.00
2018-07-07T14:36:22.612Z,27.00
2018-07-07T14:38:51.200Z,27.20
2018-07-07T14:41:21.125Z,27.10
2018-07-07T14:44:05.777Z,27.00
2018-07-07T14:46:35.157Z,26.80
2018-07-07T14:49:03.712Z,26.50
2018-07-07T14:51:32.590Z,26.70
2018-07-07T14:54:01.113Z,26.60
2018-07-07T14:56:29.928Z,26.50
2018-07-07T15:15:48.841Z,26.70
2018-07-07T15:18:17.382Z,26.80
2018-07-07T15:20:45.983Z,26.70
2018-07-07T15:23:14.614Z,26.50
2018-07-07T15:25:43.267Z,26.60
2018-07-07T15:28:11.867Z,26.50
2018-07-07T15:30:40.658Z,26.20
2018-07-07T15:33:09.329Z,25.90
2018-07-07T15:35:37.953Z,26.20
2018-07-07T15:38:06.498Z,26.30
2018-07-07T15:40:35.542Z,26.30
2018-07-07T15:43:04.179Z,26.20
2018-07-07T15:45:32.764Z,26.40
2018-07-07T15:48:01.335Z,26.40
2018-07-07T15:50:29.894Z,26.50
2018-07-07T15:52:58.797Z,26.60
2018-07-07T15:55:27.413Z,26.50
2018-07-07T15:57:55.948Z,26.50
2018-07-07T16:00:24.557Z,26.50
2018-07-07T16:02:53.398Z,26.60
2018-07-07T16:05:21.987Z,26.50
2018-07-07T16:07:50.502Z,26.40
2018-07-07T16:10:19.116Z,26.40
2018-07-07T16:12:47.665Z,26.00
2018-07-07T16:15:16.313Z,26.10
2018-07-07T16:17:44.878Z,26.10
2018-07-07T16:20:13.469Z,26.30
2018-07-07T16:22:41.975Z,26.20
2018-07-07T16:25:10.504Z,26.40
2018-07-07T16:27:39.068Z,26.40
2018-07-07T16:30:07.646Z,26.30
2018-07-07T16:32:36.187Z,26.30
2018-07-07T16:35:04.823Z,26.40
2018-07-07T16:37:33.496Z,26.40
2018-07-07T16:40:02.206Z,26.40
2018-07-07T16:42:30.855Z,26.40
2018-07-07T16:47:28.421Z,26.40
2018-07-07T16:49:57.202Z,26.20
2018-07-07T16:52:26.000Z,26.30
2018-07-07T16:54:54.622Z,26.20
2018-07-07T16:57:24.884Z,26.10
2018-07-07T16:59:54.139Z,26.00
2018-07-07T17:02:22.700Z,25.70
2018-07-07T17:04:51.362Z,25.70
2018-07-07T17:07:19.986Z,25.60
2018-07-07T17:09:49.177Z,25.70
2018-07-07T17:12:17.805Z,25.50
2018-07-07T17:14:46.404Z,25.50
2018-07-07T17:17:14.976Z,25.30
2018-07-07T17:19:44.141Z,25.40
2018-07-07T17:22:12.924Z,25.40
2018-07-07T17:24:41.778Z,25.30
2018-07-07T17:27:10.371Z,25.40
2018-07-07T17:29:39.211Z,25.70
2018-07-07T17:32:08.189Z,26.10
2018-07-07T17:34:36.777Z,26.00
2018-07-07T17:37:06.142Z,25.80
2018-07-07T17:39:35.071Z,25.60
2018-07-07T17:42:03.820Z,25.40
2018-07-07T17:44:32.607Z,25.30
2018-07-07T17:47:01.227Z,25.40
2018-07-07T17:49:30.103Z,25.20
2018-07-07T17:51:59.287Z,25.20
2018-07-07T17:54:28.013Z,25.10
2018-07-07T17:56:56.651Z,25.00
2018-07-07T17:59:25.355Z,25.00
2018-07-07T18:01:54.217Z,24.80
2018-07-07T18:04:22.809Z,24.70
2018-07-07T18:06:51.455Z,24.70
2018-07-07T18:09:20.062Z,24.60
2018-07-07T18:11:48.750Z,24.50
2018-07-07T18:14:17.451Z,24.30
2018-07-07T18:16:46.038Z,24.30
2018-07-07T18:19:14.799Z,24.20
2018-07-07T18:21:43.540Z,24.20
2018-07-07T18:24:12.158Z,24.10
2018-07-07T18:26:40.787Z,24.20
2018-07-07T18:29:09.398Z,24.10
2018-07-07T18:31:38.042Z,24.00
2018-07-07T18:34:06.663Z,24.00
2018-07-07T18:36:35.226Z,23.90
2018-07-07T18:39:04.828Z,24.00
2018-07-07T18:41:33.506Z,23.90
2018-07-07T18:44:02.115Z,23.80
2018-07-07T18:46:30.689Z,23.80
2018-07-07T18:48:59.323Z,23.70
2018-07-07T18:51:27.883Z,23.60
2018-07-07T18:53:56.449Z,23.60
2018-07-07T18:56:25.136Z,23.50
2018-07-07T18:58:53.738Z,23.30
2018-07-07T19:01:22.394Z,23.10
2018-07-07T19:03:51.069Z,23.00
2018-07-07T19:06:19.647Z,22.90
2018-07-07T19:08:48.298Z,22.80
2018-07-07T19:11:16.950Z,22.70
2018-07-07T19:13:45.542Z,22.70
2018-07-07T19:16:14.175Z,22.60
2018-07-07T19:18:42.745Z,22.60
2018-07-07T19:21:16.781Z,22.60
2018-07-07T19:23:50.535Z,22.40
2018-07-07T19:26:24.465Z,22.40
2018-07-07T19:28:53.088Z,22.30
2018-07-07T19:31:21.670Z,22.40
2018-07-07T19:33:55.528Z,22.40
2018-07-07T19:38:57.775Z,22.50
2018-07-07T19:41:26.388Z,22.40
2018-07-07T19:43:54.951Z,22.40
2018-07-07T19:46:23.558Z,22.40
2018-07-07T19:48:52.164Z,22.40
2018-07-07T19:51:20.733Z,22.40
2018-07-07T19:53:49.354Z,22.30
2018-07-07T19:56:17.951Z,22.30
2018-07-07T19:58:46.653Z,22.20
2018-07-07T20:01:15.292Z,22.20
2018-07-07T20:03:43.843Z,22.10
2018-07-07T20:06:12.411Z,21.90
2018-07-07T20:08:40.961Z,21.90
2018-07-07T20:11:09.557Z,21.80
2018-07-07T20:13:38.135Z,21.80
2018-07-07T20:16:09.136Z,21.60
2018-07-07T20:18:51.915Z,21.50
2018-07-07T20:22:03.925Z,21.30
2018-07-07T20:24:34.771Z,21.20
2018-07-07T20:27:08.644Z,20.90
2018-07-07T20:29:37.255Z,20.90
2018-07-07T20:32:11.097Z,20.80
2018-07-07T20:34:39.716Z,20.70
2018-07-07T20:37:08.443Z,20.60
2018-07-07T20:39:37.078Z,20.50
2018-07-07T20:42:05.869Z,20.50
2018-07-07T20:44:34.545Z,20.40
2018-07-07T20:47:03.080Z,20.30
2018-07-07T20:49:31.652Z,20.20
2018-07-07T20:52:00.202Z,20.10
2018-07-07T20:54:28.726Z,20.10
2018-07-07T20:56:57.279Z,20.00
2018-07-07T20:59:25.875Z,20.10
2018-07-07T21:04:22.768Z,20.00
2018-07-07T21:06:51.424Z,20.10
2018-07-07T21:09:20.138Z,20.00
2018-07-07T21:11:48.694Z,20.10
2018-07-07T21:14:17.211Z,20.10
2018-07-07T21:16:45.771Z,20.20
2018-07-07T21:19:14.374Z,20.20
2018-07-07T21:21:42.981Z,20.10
2018-07-07T21:24:11.553Z,20.10
2018-07-07T21:26:40.102Z,20.10
2018-07-07T21:29:08.712Z,20.00
2018-07-07T21:31:37.316Z,19.90
2018-07-07T21:34:06.053Z,20.00
2018-07-07T21:36:34.646Z,19.90
2018-07-07T21:39:03.457Z,19.90
2018-07-07T21:41:32.019Z,19.90
2018-07-07T21:44:00.607Z,19.80
2018-07-07T21:46:29.161Z,19.90
2018-07-07T21:48:57.730Z,19.80
2018-07-07T21:51:26.406Z,19.70
2018-07-07T21:53:55.154Z,19.70
2018-07-07T21:56:23.655Z,19.60
2018-07-07T21:58:57.699Z,19.60
2018-07-07T22:21:16.419Z,19.60
2018-07-07T22:23:45.015Z,19.60
2018-07-07T22:26:13.980Z,19.40
2018-07-07T22:28:42.695Z,19.40
2018-07-07T22:31:11.256Z,19.30
2018-07-07T22:33:39.947Z,19.40
2018-07-07T22:36:13.889Z,19.30
2018-07-07T22:38:47.872Z,19.30
2018-07-07T22:41:16.414Z,19.50
2018-07-07T22:43:44.959Z,19.40
2018-07-07T22:46:13.552Z,19.40
2018-07-07T22:48:42.157Z,19.30
2018-07-07T22:51:10.754Z,19.30
2018-07-07T22:53:39.462Z,19.20
2018-07-07T22:56:08.066Z,19.20
2018-07-07T22:58:36.677Z,19.20
2018-07-07T23:01:05.240Z,19.30
2018-07-07T23:03:33.785Z,19.20
2018-07-07T23:06:02.295Z,19.10
2018-07-07T23:08:30.818Z,19.00
2018-07-07T23:10:59.378Z,18.90
2018-07-07T23:13:28.000Z,18.80
2018-07-07T23:15:56.571Z,18.70
2018-07-07T23:18:25.143Z,18.60
2018-07-07T23:20:53.716Z,18.40
2018-07-07T23:23:22.292Z,18.40
2018-07-07T23:25:50.955Z,18.30
2018-07-07T23:28:19.529Z,18.20
2018-07-07T23:30:48.431Z,18.20
2018-07-07T23:33:16.979Z,18.00
2018-07-07T23:35:45.521Z,17.90
2018-07-07T23:38:14.126Z,17.90
2018-07-07T23:40:42.707Z,17.70
2018-07-07T23:43:11.341Z,17.60
2018-07-07T23:45:39.915Z,17.60
2018-07-07T23:48:08.545Z,17.50
2018-07-07T23:50:37.043Z,17.40
2018-07-07T23:53:05.654Z,17.30
2018-07-07T23:55:34.196Z,17.30
2018-07-07T23:58:02.769Z,17.20
